Latest Weather Observations for Broken Hill Airport

IDN60801

Issued at 9:03 am EST Thursday 28 July 2016 (issued every 30 minutes, with the page automatically refreshed every 10 minutes)

About weather observations | Map of weather stations | Latest weather observations for NSW | Other Formats
Station Details ID: 047048 Name: BROKEN HILL AIRPORT AWS Lat: -32.00 Lon: 141.47 Height: 281.3 m
Data from the previous 72 hours. | See also: Recent months at Broken Hill Airport
Date/Time
EST
Temp
°C
App
Temp
°C
Dew
Point
°C
Rel
Hum
%
Delta-T
°C
Wind Press
QNH
hPa
Press
MSL
hPa
Rain since
9am
mm
Dir  Spd
km/h
Gust
km/h
Spd
kts
Gust
kts
28/09:00am 6.5 5.3 4.7 88 0.8 CALM 0 0 0 0 1030.5 1030.8 0.0
28/08:30am 4.8 3.4 3.5 91 0.5 CALM 0 0 0 0 1030.3 1030.7 0.0
28/08:00am 3.9 2.3 2.7 92 0.5 CALM 0 0 0 0 1029.9 1030.3 0.0
28/07:30am 1.8 -0.1 0.3 90 0.6 CALM 0 0 0 0 1029.6 1030.0 0.0
28/07:00am 3.3 1.5 1.5 88 0.7 CALM 0 0 0 0 1029.0 1029.3 0.0
28/06:30am 4.1 2.5 2.3 88 0.7 CALM 0 6 0 3 1028.7 1029.0 0.0
28/06:00am 4.0 2.4 2.2 88 0.7 CALM 0 0 0 0 1028.6 1028.9 0.0
28/05:30am 4.3 1.9 2.3 87 0.8 SSW 4 6 2 3 1028.3 1028.6 0.0
28/05:00am 4.2 2.6 2.2 87 0.8 CALM 0 0 0 0 1028.3 1028.6 0.0
28/04:30am 4.0 2.0 2.2 88 0.7 SSW 2 6 1 3 1027.9 1028.2 0.0
28/04:00am 3.9 2.2 1.8 86 0.8 CALM 0 0 0 0 1027.7 1028.0 0.0
28/03:30am 4.0 1.1 1.5 84 1.0 SSW 6 7 3 4 1027.6 1027.9 0.0
28/03:00am 4.7 3.1 2.4 85 0.9 CALM 0 0 0 0 1027.4 1027.7 0.0
28/02:30am 4.3 1.5 2.2 86 0.9 SW 6 11 3 6 1027.3 1027.6 0.0
28/02:00am 4.4 2.9 2.9 90 0.6 CALM 0 0 0 0 1027.5 1027.8 0.0
28/01:30am 3.1 0.0 1.6 90 0.6 WSW 7 9 4 5 1027.6 1027.9 0.0
28/01:00am 3.6 2.0 2.3 91 0.5 CALM 0 0 0 0 1027.8 1028.1 0.0
28/12:30am 4.4 2.8 2.4 87 0.8 CALM 0 0 0 0 1027.6 1027.9 0.0
28/12:00am 4.0 2.2 1.5 84 1.0 CALM 0 0 0 0 1027.8 1028.1 0.0
 
Date/Time
EST
Temp
°C
App
Temp
°C
Dew
Point
°C
Rel
Hum
%
Delta-T
°C
Wind Press
QNH
hPa
Press
MSL
hPa
Rain since
9am
mm
Dir  Spd
km/h
Gust
km/h
Spd
kts
Gust
kts
27/11:30pm 5.3 2.0 2.7 83 1.1 NW 9 11 5 6 1028.0 1028.3 0.0
27/11:00pm 5.8 2.5 2.6 80 1.3 WNW 9 9 5 5 1028.0 1028.3 0.0
27/10:30pm 6.4 3.6 3.4 81 1.3 WNW 7 9 4 5 1027.8 1028.1 0.0
27/10:00pm 6.5 3.7 3.3 80 1.4 W 7 7 4 4 1027.7 1028.0 0.0
27/09:30pm 6.8 4.3 3.6 80 1.4 SW 6 6 3 3 1027.6 1027.9 0.0
27/09:00pm 6.1 2.9 3.1 81 1.3 SSW 9 9 5 5 1027.3 1027.6 0.0
27/08:30pm 7.0 4.8 3.3 77 1.6 SSW 4 9 2 5 1027.1 1027.4 0.0
27/08:00pm 7.8 6.4 3.8 76 1.7 CALM 0 4 0 2 1026.6 1027.0 0.0
27/07:30pm 7.7 5.0 3.9 77 1.7 SSW 7 9 4 5 1026.5 1026.9 0.0
27/07:00pm 7.9 4.9 3.9 76 1.7 SSW 9 9 5 5 1026.1 1026.4 0.0
27/06:30pm 8.4 5.0 4.0 74 1.9 SW 11 11 6 6 1025.4 1025.7 0.0
27/06:00pm 9.4 5.7 4.2 70 2.3 SW 13 15 7 8 1025.1 1025.4 0.0
27/05:30pm 11.3 7.2 4.3 62 3.2 SSW 15 19 8 10 1024.6 1024.9 0.0
27/05:00pm 11.8 6.7 4.3 60 3.4 SSW 20 26 11 14 1024.4 1024.7 0.0
27/04:30pm 12.4 7.7 5.1 61 3.4 SW 19 24 10 13 1024.0 1024.3 0.0
27/04:00pm 12.3 6.9 4.5 59 3.6 SW 22 28 12 15 1024.0 1024.3 0.0
27/03:30pm 12.3 7.5 5.5 63 3.2 SW 20 28 11 15 1023.6 1023.9 0.0
27/03:00pm 12.4 7.5 5.1 61 3.4 SW 20 26 11 14 1023.4 1023.7 0.0
27/02:30pm 12.4 7.3 5.8 64 3.1 SW 22 30 12 16 1023.3 1023.6 0.0
27/02:00pm 12.5 7.7 5.4 62 3.3 SW 20 30 11 16 1022.8 1023.1 0.0
27/01:30pm 12.5 8.0 6.3 66 3.0 SW 19 26 10 14 1023.0 1023.2 0.0
27/01:00pm 12.4 7.4 6.5 67 2.8 SSW 22 32 12 17 1023.5 1023.8 0.0
27/12:30pm 11.8 6.0 6.3 69 2.6 SSW 26 33 14 18 1023.4 1023.7 0.0
27/12:00pm 12.3 5.9 6.8 69 2.7 SSW 30 37 16 20 1023.1 1023.3 0.0
27/11:30am 12.0 5.4 7.7 75 2.1 SSW 32 41 17 22 1022.7 1023.0 0.0
27/11:00am 11.9 5.1 7.0 72 2.4 SW 32 41 17 22 1022.6 1022.9 0.0
27/10:30am 11.8 5.6 7.7 76 2.0 SW 30 39 16 21 1022.4 1022.7 0.0
27/10:00am 11.0 5.4 7.3 78 1.8 WSW 26 33 14 18 1022.0 1022.3 0.0
27/09:30am 10.4 6.0 7.3 81 1.5 WSW 20 26 11 14 1021.5 1021.8 1.6
27/09:00am 9.5 5.1 6.6 82 1.4 W 19 24 10 13 1021.2 1021.5 1.6
27/08:30am 8.3 3.8 6.3 87 0.9 W 19 24 10 13 1020.8 1021.1 1.6
27/08:00am 7.1 2.9 5.6 90 0.7 WNW 17 20 9 11 1020.4 1020.7 1.6
27/07:30am 6.7 2.4 5.3 91 0.6 WNW 17 20 9 11 1019.8 1020.0 1.2
27/07:00am 7.1 2.5 5.4 89 0.8 W 19 22 10 12 1019.1 1019.4 1.2
27/06:30am 7.4 2.9 5.9 90 0.7 W 19 24 10 13 1018.6 1018.9 1.2
27/06:00am 8.0 2.5 6.1 88 0.9 W 24 30 13 16 1018.3 1018.6 1.2
27/05:30am 8.3 3.3 6.6 89 0.8 W 22 30 12 16 1017.7 1018.0 1.2
27/05:00am 8.7 4.3 7.3 91 0.7 W 20 30 11 16 1017.3 1017.6 1.2
27/04:30am 8.8 4.7 7.9 94 0.4 WNW 19 24 10 13 1017.0 1017.2 1.2
27/04:06am 8.7 5.2 8.7 100 0.0 WNW 17 20 9 11 1016.9 1017.1 1.2
27/04:04am 8.7 5.2 8.7 100 0.0 W 17 20 9 11 1016.9 1017.1 1.2
27/04:00am 8.7 4.8 8.7 100 0.0 W 19 24 10 13 1016.9 1017.1 1.2
27/03:30am 9.1 2.4 7.2 88 0.9 WSW 32 44 17 24 1017.1 1017.3 0.2
27/03:28am 9.5 2.7 7.1 85 1.1 WSW 32 43 17 23 1017.1 1017.3 0.0
27/03:00am 10.6 3.5 5.6 71 2.3 WNW 32 48 17 26 1016.4 1016.6 0.0
27/02:32am 10.4 3.4 6.0 74 2.1 W 32 50 17 27 1016.2 1016.4 0.0
27/02:30am 10.5 3.3 5.9 73 2.2 W 33 50 18 27 1016.2 1016.4 0.0
27/02:06am 11.3 3.6 5.4 67 2.8 WNW 35 57 19 31 1015.9 1016.1 0.0
27/02:00am 11.4 4.1 4.6 63 3.1 WNW 32 44 17 24 1015.8 1016.0 0.0
27/01:42am 11.5 4.1 4.9 64 3.1 WNW 33 52 18 28 1015.6 1015.8 0.0
27/01:30am 11.5 3.6 4.3 61 3.3 WNW 35 50 19 27 1015.8 1016.0 0.0
27/01:00am 11.1 3.2 4.1 62 3.2 WNW 35 48 19 26 1015.3 1015.6 0.0
27/12:30am 10.9 3.5 4.1 63 3.1 NW 32 43 17 23 1015.6 1015.8 0.0
27/12:00am 11.2 3.8 4.0 61 3.3 WNW 32 41 17 22 1015.6 1015.8 0.0
 
Date/Time
EST
Temp
°C
App
Temp
°C
Dew
Point
°C
Rel
Hum
%
Delta-T
°C
Wind Press
QNH
hPa
Press
MSL
hPa
Rain since
9am
mm
Dir  Spd
km/h
Gust
km/h
Spd
kts
Gust
kts
26/11:30pm 11.4 4.7 3.9 60 3.4 NW 28 41 15 22 1015.5 1015.7 0.0
26/11:00pm 11.7 3.7 4.0 59 3.5 WNW 35 48 19 26 1015.5 1015.7 0.0
26/10:30pm 11.2 3.8 4.0 61 3.3 NW 32 41 17 22 1015.5 1015.7 0.0
26/10:00pm 11.4 4.8 4.2 61 3.3 WNW 28 35 15 19 1015.6 1015.8 0.0
26/09:30pm 11.9 5.2 3.9 58 3.6 NW 28 41 15 22 1015.5 1015.7 0.0
26/09:00pm 11.7 5.0 3.7 58 3.6 NW 28 35 15 19 1015.5 1015.7 0.0
26/08:30pm 11.7 5.8 3.7 58 3.6 NW 24 32 13 17 1015.5 1015.7 0.0
26/08:00pm 11.5 6.5 3.8 59 3.5 NW 19 30 10 16 1015.3 1015.6 0.0
26/07:30pm 11.5 7.3 3.8 59 3.5 WNW 15 20 8 11 1015.5 1015.7 0.0
26/07:00pm 12.6 7.8 4.8 59 3.6 WNW 19 28 10 15 1015.6 1015.8 0.0
26/06:30pm 13.0 8.2 4.9 58 3.8 NW 19 24 10 13 1015.3 1015.6 0.0
26/06:00pm 13.3 8.4 5.0 57 3.9 NW 20 33 11 18 1014.9 1015.2 0.0
26/05:30pm 13.6 8.7 5.3 57 3.9 NW 20 35 11 19 1014.8 1015.1 0.0
26/05:00pm 14.0 7.6 5.1 55 4.2 NW 28 41 15 22 1014.9 1015.2 0.0
26/04:30pm 14.2 7.7 4.8 53 4.4 NW 28 43 15 23 1014.8 1015.1 0.0
26/04:00pm 14.3 7.5 4.9 53 4.4 NW 30 39 16 21 1015.2 1015.5 0.0
26/03:34pm 14.7 8.3 5.2 53 4.5 NW 28 46 15 25 1015.3 1015.6 0.0
26/03:30pm 14.6 9.1 5.9 56 4.2 NW 24 37 13 20 1015.5 1015.7 0.0
26/03:00pm 14.2 7.4 5.0 54 4.4 NW 30 43 16 23 1015.8 1016.0 0.0
26/02:30pm 14.1 7.9 6.2 59 3.8 NW 28 41 15 22 1015.9 1016.1 0.0
26/02:00pm 13.9 8.5 6.5 61 3.6 NW 24 33 13 18 1016.3 1016.5 0.0
26/01:30pm 13.0 7.7 6.6 65 3.1 NW 24 32 13 17 1017.1 1017.3 0.0
26/01:00pm 12.9 8.3 6.3 64 3.2 NW 20 32 11 17 1017.5 1017.8 0.0
26/12:30pm 12.9 7.8 6.0 63 3.3 NW 22 30 12 16 1018.2 1018.5 0.0
26/12:00pm 12.7 8.2 6.3 65 3.1 NW 19 26 10 14 1018.6 1018.9 0.0
26/11:30am 12.4 7.7 6.0 65 3.1 NW 20 26 11 14 1019.0 1019.3 0.0
26/11:00am 12.8 8.7 6.4 65 3.1 NW 17 22 9 12 1019.4 1019.6 0.0
26/10:30am 12.5 8.3 5.9 64 3.1 NW 17 24 9 13 1019.8 1020.0 0.0
26/10:00am 11.8 8.1 6.1 68 2.7 NW 15 20 8 11 1019.9 1020.1 0.0
26/09:30am 10.8 8.0 6.9 77 1.9 NW 11 17 6 9 1019.8 1020.0 0.0
26/09:00am 10.0 7.6 6.9 81 1.5 NNW 9 13 5 7 1019.7 1019.9 0.0
26/08:30am 9.2 7.2 7.0 86 1.0 NNE 7 11 4 6 1019.6 1019.8 0.0
26/08:00am 8.2 6.2 6.2 87 0.9 NNW 6 9 3 5 1019.5 1019.7 0.0
26/07:30am 8.3 5.7 6.3 87 0.9 NNW 9 13 5 7 1019.3 1019.5 0.0
26/07:00am 8.1 5.9 6.1 87 0.9 NW 7 9 4 5 1019.1 1019.4 0.0
26/06:30am 7.9 5.8 6.5 91 0.7 N 7 9 4 5 1018.8 1019.1 0.0
26/06:00am 6.9 5.9 5.4 90 0.7 CALM 0 0 0 0 1018.5 1018.8 0.0
26/05:30am 7.4 5.2 6.2 92 0.6 NNW 7 9 4 5 1018.4 1018.7 0.0
26/05:00am 6.6 3.8 5.1 90 0.7 WNW 9 9 5 5 1018.1 1018.4 0.0
26/04:30am 7.0 4.8 5.2 88 0.8 W 6 7 3 4 1018.2 1018.5 0.0
26/04:00am 6.8 3.9 4.6 86 1.0 WNW 9 9 5 5 1018.1 1018.4 0.0
26/03:30am 7.3 3.3 4.8 84 1.1 W 15 19 8 10 1018.0 1018.3 0.0
26/03:00am 7.8 3.4 4.9 82 1.3 WNW 17 22 9 12 1018.3 1018.6 0.0
26/02:30am 7.4 2.9 4.4 81 1.3 WNW 17 22 9 12 1018.3 1018.6 0.0
26/02:00am 8.2 3.2 4.6 78 1.6 WNW 20 28 11 15 1018.3 1018.6 0.0
26/01:30am 8.5 2.8 4.7 77 1.7 WNW 24 30 13 16 1018.3 1018.6 0.0
26/01:00am 8.9 3.1 4.5 74 2.0 WNW 24 30 13 16 1018.2 1018.5 0.0
26/12:30am 9.6 3.4 4.4 70 2.3 WNW 26 35 14 19 1018.1 1018.4 0.0
26/12:00am 10.4 3.9 4.5 67 2.7 NW 28 35 15 19 1018.1 1018.4 0.0
 
Date/Time
EST
Temp
°C
App
Temp
°C
Dew
Point
°C
Rel
Hum
%
Delta-T
°C
Wind Press
QNH
hPa
Press
MSL
hPa
Rain since
9am
mm
Dir  Spd
km/h
Gust
km/h
Spd
kts
Gust
kts
25/11:30pm 10.6 3.7 4.5 66 2.8 NW 30 41 16 22 1018.0 1018.3 0.0
25/11:00pm 10.6 4.1 4.5 66 2.8 NW 28 44 15 24 1017.9 1018.2 0.0
25/10:30pm 10.6 4.1 4.5 66 2.8 NW 28 41 15 22 1018.0 1018.3 0.0
25/10:00pm 10.4 3.8 4.3 66 2.8 NW 28 37 15 20 1018.1 1018.4 0.0
25/09:30pm 10.5 3.9 4.4 66 2.8 NW 28 39 15 21 1018.1 1018.4 0.0
25/09:00pm 10.6 4.4 4.3 65 2.9 NW 26 35 14 19 1018.0 1018.3 0.0
25/08:30pm 10.5 5.0 4.2 65 2.8 NW 22 32 12 17 1018.0 1018.3 0.0
25/08:00pm 10.7 5.8 4.0 63 3.0 NW 19 26 10 14 1018.3 1018.6 0.0
25/07:30pm 10.7 5.6 4.2 64 2.9 WNW 20 32 11 17 1018.2 1018.5 0.0
25/07:00pm 10.9 4.6 3.9 62 3.1 WNW 26 32 14 17 1018.0 1018.3 0.0
25/06:30pm 11.1 5.6 4.1 62 3.2 WNW 22 30 12 16 1017.6 1017.9 0.0
25/06:00pm 11.5 5.5 3.5 58 3.6 WNW 24 32 13 17 1017.2 1017.4 0.0
25/05:30pm 12.4 5.6 3.1 53 4.2 WNW 28 39 15 21 1016.7 1016.9 0.0
25/05:01pm 13.1 5.9 3.2 51 4.5 WNW 30 48 16 26 1016.8 1017.0 0.0
25/05:00pm 13.1 5.9 3.2 51 4.5 WNW 30 37 16 20 1016.8 1017.0 0.0
25/04:30pm 13.3 5.5 2.8 49 4.7 NW 33 46 18 25 1016.9 1017.1 0.0
25/04:00pm 13.3 6.1 2.8 49 4.7 NW 30 43 16 23 1017.1 1017.3 0.0
25/03:30pm 13.4 5.8 2.6 48 4.8 NW 32 50 17 27 1017.5 1017.8 0.0
25/03:00pm 13.5 5.8 2.4 47 4.9 NW 32 46 17 25 1017.7 1018.0 0.0
25/02:30pm 13.5 6.9 4.4 54 4.2 NW 28 41 15 22 1017.7 1018.0 0.0
25/02:00pm 13.1 6.5 1.8 46 4.9 NW 26 39 14 21 1018.2 1018.5 0.0
25/01:30pm 12.8 6.9 3.7 54 4.2 NW 24 37 13 20 1018.4 1018.7 0.0
25/01:00pm 12.7 6.0 3.6 54 4.1 WNW 28 35 15 19 1019.1 1019.4 0.0
25/12:30pm 12.4 6.6 4.4 58 3.7 NW 24 32 13 17 1019.5 1019.7 0.0
25/12:00pm 11.7 6.0 4.9 63 3.1 NW 24 32 13 17 1019.9 1020.1 0.0
25/11:30am 11.4 5.3 4.8 64 3.0 WNW 26 35 14 19 1020.5 1020.8 0.0
25/11:00am 10.6 4.4 4.5 66 2.8 WNW 26 35 14 19 1020.7 1021.0 0.0
25/10:30am 9.7 3.8 3.9 67 2.6 WNW 24 32 13 17 1020.7 1021.0 0.0
25/10:00am 9.1 4.0 3.9 70 2.3 WNW 20 28 11 15 1020.3 1020.6 0.0

Other Formats:

Comma delimited format used in spreadsheet applications
http://www.bom.gov.au/fwo/IDN60801/IDN60801.94691.axf

JavaScript Object Notation format (JSON) in row-major order
http://www.bom.gov.au/fwo/IDN60801/IDN60801.94691.json